Time;durP1;ratioP1;P1;durP2;ratioP2;P2;SDS_P1;SDS_P2;PMS_P1;PMS_P2;Temp;Humidity;BMP_temperature;BMP_pressure;BME280_temperature;BME280_humidity;BME280_pressure;Samples;Min_cycle;Max_cycle;Signal;HPM_P1;HPM_P2
2022/10/06 00:01:15;;;;;;;3.70;3.37;;;15.20;99.90;;;;;;5015506;28;20680;-72
2022/10/06 00:03:42;;;;;;;4.20;2.77;;;15.20;99.90;;;;;;4994416;28;20225;-72
2022/10/06 00:06:09;;;;;;;9.33;3.80;;;15.20;99.90;;;;;;5008945;28;20468;-72
2022/10/06 00:08:37;;;;;;;4.70;3.20;;;15.20;99.90;;;;;;5019529;28;21044;-71
2022/10/06 00:11:04;;;;;;;9.20;3.60;;;15.20;99.90;;;;;;5010652;28;20463;-72
2022/10/06 00:13:31;;;;;;;4.20;2.93;;;15.10;99.90;;;;;;5012175;28;20463;-71
2022/10/06 00:15:56;;;;;;;3.93;3.40;;;15.20;99.90;;;;;;5022690;28;20530;-71
2022/10/06 00:18:22;;;;;;;6.80;3.90;;;15.10;99.90;;;;;;5019395;28;21066;-72
2022/10/06 00:20:59;;;;;;;3.10;2.77;;;15.10;99.90;;;;;;5006109;28;20303;-72
2022/10/06 00:23:27;;;;;;;10.47;5.23;;;15.00;99.90;;;;;;5014383;28;20225;-71
2022/10/06 00:25:53;;;;;;;4.70;4.00;;;15.00;99.90;;;;;;4999599;28;20452;-71
2022/10/06 00:28:19;;;;;;;6.20;4.00;;;15.00;99.90;;;;;;5014585;28;20975;-71
2022/10/06 00:30:45;;;;;;;11.00;4.13;;;15.00;99.90;;;;;;5021063;28;20466;-71
2022/10/06 00:33:14;;;;;;;5.50;3.93;;;15.00;99.90;;;;;;5002406;28;20650;-72
2022/10/06 00:35:41;;;;;;;4.73;3.80;;;14.90;99.90;;;;;;4998459;28;20445;-70
2022/10/06 00:38:06;;;;;;;6.60;3.57;;;14.90;99.90;;;;;;5004226;28;20453;-72
2022/10/06 00:40:32;;;;;;;5.13;4.20;;;15.00;99.90;;;;;;5013007;28;20998;-72
2022/10/06 00:43:02;;;;;;;4.40;3.57;;;15.00;99.90;;;;;;4992646;28;20210;-71
2022/10/06 00:45:47;;;;;;;6.03;4.27;;;15.00;99.90;;;;;;5002364;28;20220;-73
2022/10/06 00:48:22;;;;;;;5.87;3.70;;;15.00;99.90;;;;;;5004091;28;20860;-72
2022/10/06 00:50:49;;;;;;;3.43;3.13;;;15.00;99.90;;;;;;5011857;28;20538;-73
2022/10/06 00:53:15;;;;;;;4.47;3.63;;;15.00;99.90;;;;;;4990961;28;20469;-72
2022/10/06 00:55:41;;;;;;;7.07;4.13;;;15.00;99.90;;;;;;5012949;28;20459;-70
2022/10/06 00:58:08;;;;;;;5.07;3.80;;;15.00;99.90;;;;;;5010317;28;20449;-73
2022/10/06 01:00:34;;;;;;;4.70;3.90;;;15.00;99.90;;;;;;5018452;28;20218;-72
2022/10/06 01:03:14;;;;;;;4.70;4.13;;;15.00;99.90;;;;;;5013763;28;20991;-72
2022/10/06 01:05:45;;;;;;;4.93;4.00;;;15.00;99.90;;;;;;5020112;28;20447;-71
2022/10/06 01:08:12;;;;;;;3.97;3.23;;;15.00;99.90;;;;;;5014414;28;20523;-72
2022/10/06 01:10:38;;;;;;;4.67;4.10;;;15.00;99.90;;;;;;5000654;28;20444;-71
2022/10/06 01:13:05;;;;;;;4.17;3.40;;;15.00;99.90;;;;;;5020067;28;21031;-70
2022/10/06 01:15:32;;;;;;;4.40;4.00;;;15.00;99.90;;;;;;5004275;28;20228;-72
2022/10/06 01:18:12;;;;;;;4.90;4.40;;;15.00;99.90;;;;;;5008852;28;20453;-70
2022/10/06 01:20:44;;;;;;;5.80;3.23;;;15.00;99.90;;;;;;5008040;28;20458;-72
2022/10/06 01:23:10;;;;;;;6.30;4.10;;;15.00;99.90;;;;;;5000623;28;20456;-72
2022/10/06 01:25:36;;;;;;;4.73;4.27;;;15.10;99.90;;;;;;5006410;28;20806;-71
2022/10/06 01:28:05;;;;;;;8.30;3.27;;;15.10;99.90;;;;;;5004395;28;20457;-72
2022/10/06 01:30:34;;;;;;;4.87;3.60;;;15.20;99.90;;;;;;5027200;28;20217;-72
2022/10/06 01:33:00;;;;;;;7.03;3.40;;;15.20;99.90;;;;;;5015751;28;21165;-71
2022/10/06 01:35:26;;;;;;;7.27;3.50;;;15.20;99.90;;;;;;5017235;28;20454;-72
2022/10/06 01:37:53;;;;;;;3.80;3.50;;;15.20;99.90;;;;;;4998482;28;20210;-72
2022/10/06 01:40:19;;;;;;;3.67;3.33;;;15.20;99.90;;;;;;4993223;28;20217;-72
2022/10/06 01:42:45;;;;;;;5.57;3.40;;;15.20;99.90;;;;;;5011209;28;20449;-72
2022/10/06 01:45:11;;;;;;;6.80;3.40;;;15.30;99.90;;;;;;5007156;28;20455;-73
2022/10/06 01:47:37;;;;;;;5.47;3.83;;;15.30;99.90;;;;;;5011694;28;20236;-72
2022/10/06 01:50:05;;;;;;;3.73;3.43;;;15.30;99.90;;;;;;5009934;28;20301;-73
2022/10/06 01:52:31;;;;;;;3.87;3.07;;;15.30;99.90;;;;;;5004078;28;20467;-73
2022/10/06 01:54:57;;;;;;;2.70;2.50;;;15.30;99.90;;;;;;5008615;28;20463;-73
2022/10/06 01:57:23;;;;;;;4.50;1.80;;;15.30;99.90;;;;;;5007030;28;20302;-71
2022/10/06 01:59:48;;;;;;;3.13;1.97;;;15.30;99.90;;;;;;5013663;28;20531;-70
2022/10/06 02:02:14;;;;;;;5.03;1.77;;;15.30;99.90;;;;;;4999738;28;20217;-72
2022/10/06 02:04:40;;;;;;;3.53;1.70;;;15.20;99.90;;;;;;5027611;28;20225;-71
2022/10/06 02:07:06;;;;;;;1.53;1.40;;;15.20;99.90;;;;;;5015752;28;20363;-71
2022/10/06 02:09:40;;;;;;;2.60;0.90;;;15.20;99.90;;;;;;5014455;28;20217;-73
2022/10/06 02:12:06;;;;;;;0.53;0.50;;;15.10;99.90;;;;;;4998157;28;20457;-71
2022/10/06 02:14:33;;;;;;;1.97;0.60;;;15.10;99.90;;;;;;5019179;28;20549;-73
2022/10/06 02:16:59;;;;;;;0.83;0.63;;;15.10;99.90;;;;;;5005140;28;20213;-71
2022/10/06 02:19:25;;;;;;;0.63;0.60;;;15.10;99.90;;;;;;5019268;28;20515;-73
2022/10/06 02:21:51;;;;;;;0.87;0.87;;;15.00;99.90;;;;;;5011086;28;20461;-71
2022/10/06 02:24:16;;;;;;;1.00;0.77;;;15.00;99.90;;;;;;4995236;28;20234;-70
2022/10/06 02:26:42;;;;;;;0.80;0.63;;;15.00;99.90;;;;;;5011096;28;20760;-70
2022/10/06 02:29:08;;;;;;;0.60;0.60;;;14.90;99.90;;;;;;5020081;28;20688;-72
2022/10/06 02:31:33;;;;;;;1.90;0.73;;;14.90;99.90;;;;;;5007173;28;20230;-71
2022/10/06 02:33:59;;;;;;;3.07;0.80;;;14.90;99.90;;;;;;5003594;28;20698;-71
2022/10/06 02:36:25;;;;;;;0.80;0.60;;;14.90;99.90;;;;;;5011693;28;20245;-70
2022/10/06 02:38:52;;;;;;;0.70;0.70;;;14.90;99.90;;;;;;5015507;28;20217;-72
2022/10/06 02:41:18;;;;;;;1.00;0.80;;;14.90;99.90;;;;;;5006872;28;20461;-71
2022/10/06 02:43:45;;;;;;;4.83;0.90;;;14.90;99.90;;;;;;5010907;28;20456;-72
2022/10/06 02:46:12;;;;;;;0.80;0.63;;;14.90;99.90;;;;;;5011111;28;20827;-72
2022/10/06 02:48:40;;;;;;;1.03;0.70;;;14.90;99.90;;;;;;5011936;28;20451;-71
2022/10/06 02:51:14;;;;;;;1.00;0.80;;;14.90;99.90;;;;;;4993934;28;20495;-72
2022/10/06 02:53:42;;;;;;;0.70;0.50;;;14.90;99.90;;;;;;5001199;28;20518;-71
2022/10/06 02:56:14;;;;;;;1.20;0.80;;;14.90;99.90;;;;;;5011712;28;20456;-72
2022/10/06 02:58:41;;;;;;;1.23;0.70;;;14.90;99.90;;;;;;5023603;28;20463;-73
2022/10/06 03:01:13;;;;;;;1.60;0.60;;;14.90;99.90;;;;;;5015906;28;20679;-72
2022/10/06 03:03:40;;;;;;;0.70;0.70;;;14.80;99.90;;;;;;4995446;28;20451;-73
2022/10/06 03:06:23;;;;;;;1.00;0.77;;;14.90;99.90;;;;;;5020228;28;20464;-73
2022/10/06 03:09:03;;;;;;;2.33;0.80;;;14.90;99.90;;;;;;5026069;28;20468;-72
2022/10/06 03:11:32;;;;;;;0.83;0.83;;;14.90;99.90;;;;;;5010054;28;20463;-72
2022/10/06 03:13:59;;;;;;;3.17;0.60;;;14.90;99.90;;;;;;5005418;28;20492;-72
2022/10/06 03:16:28;;;;;;;1.90;0.70;;;14.90;99.90;;;;;;4992397;28;20451;-71
2022/10/06 03:18:57;;;;;;;1.30;0.50;;;14.90;99.90;;;;;;5020908;28;20462;-72
2022/10/06 03:21:29;;;;;;;1.07;0.90;;;14.90;99.90;;;;;;5021025;28;20451;-72
2022/10/06 03:23:57;;;;;;;0.60;0.60;;;14.90;99.90;;;;;;5014420;28;20535;-73
2022/10/06 03:26:27;;;;;;;1.30;0.93;;;14.90;99.90;;;;;;5010995;28;20444;-71
2022/10/06 03:28:54;;;;;;;0.70;0.70;;;14.90;99.90;;;;;;5008470;28;20569;-71
2022/10/06 03:31:20;;;;;;;1.70;0.77;;;14.90;99.90;;;;;;5026226;28;20519;-72
2022/10/06 03:33:46;;;;;;;1.70;0.90;;;14.90;99.90;;;;;;5010970;28;20468;-73
2022/10/06 03:36:18;;;;;;;0.70;0.60;;;14.90;99.90;;;;;;4995515;28;20974;-72
2022/10/06 03:38:44;;;;;;;1.10;0.80;;;14.90;99.90;;;;;;5001563;28;20244;-72
2022/10/06 03:41:18;;;;;;;2.57;0.87;;;14.90;99.90;;;;;;5011741;28;20448;-72
2022/10/06 03:43:46;;;;;;;0.80;0.70;;;14.90;99.90;;;;;;5011793;28;20591;-71
2022/10/06 03:46:14;;;;;;;0.80;0.80;;;14.90;99.90;;;;;;4992730;28;20448;-71
2022/10/06 03:48:41;;;;;;;2.00;0.80;;;14.90;99.90;;;;;;5006221;28;20553;-72
2022/10/06 03:51:18;;;;;;;1.30;0.90;;;14.90;99.90;;;;;;5010716;28;20444;-71
2022/10/06 03:53:46;;;;;;;2.40;0.90;;;14.90;99.90;;;;;;4999696;28;20465;-72
2022/10/06 03:56:24;;;;;;;2.87;0.97;;;14.90;99.90;;;;;;4987528;28;20459;-72
2022/10/06 03:58:53;;;;;;;0.70;0.60;;;14.90;99.90;;;;;;5007153;28;20495;-73
2022/10/06 04:01:41;;;;;;;1.07;0.97;;;14.90;99.90;;;;;;4998077;28;20452;-72
2022/10/06 04:04:09;;;;;;;0.80;0.70;;;15.00;99.90;;;;;;5006444;28;20468;-71
2022/10/06 04:06:36;;;;;;;1.37;0.90;;;14.90;99.90;;;;;;5013129;28;20502;-73
2022/10/06 04:09:06;;;;;;;1.00;0.77;;;14.90;99.90;;;;;;4994374;28;20538;-73
2022/10/06 04:11:36;;;;;;;0.83;0.67;;;14.90;99.90;;;;;;5011737;28;20506;-71
2022/10/06 04:14:05;;;;;;;1.13;0.90;;;14.90;99.90;;;;;;5018767;28;20483;-73
2022/10/06 04:16:33;;;;;;;3.93;1.03;;;14.90;99.90;;;;;;4993968;28;20460;-70
2022/10/06 04:19:02;;;;;;;1.37;1.27;;;14.90;99.90;;;;;;4994064;28;20460;-71
2022/10/06 04:21:29;;;;;;;1.23;0.60;;;14.90;99.90;;;;;;5006938;28;20543;-72
2022/10/06 04:23:57;;;;;;;0.70;0.70;;;14.90;99.90;;;;;;4996175;28;20531;-72
2022/10/06 04:26:26;;;;;;;0.87;0.70;;;14.90;99.90;;;;;;5009817;28;20453;-72
2022/10/06 04:28:52;;;;;;;1.80;0.77;;;14.90;99.90;;;;;;5006769;28;20459;-70
2022/10/06 04:31:27;;;;;;;1.13;0.87;;;14.90;99.90;;;;;;4995168;28;21007;-72
2022/10/06 04:33:58;;;;;;;2.03;0.83;;;14.90;99.90;;;;;;5005396;28;20529;-72
2022/10/06 04:36:27;;;;;;;1.37;0.87;;;14.90;99.90;;;;;;4998592;28;20455;-71
2022/10/06 04:38:57;;;;;;;1.87;0.60;;;14.90;99.90;;;;;;4992369;28;20457;-72
2022/10/06 04:41:32;;;;;;;1.90;0.90;;;14.90;99.90;;;;;;4990398;28;20467;-73
2022/10/06 04:43:58;;;;;;;2.10;1.00;;;14.90;99.90;;;;;;4990878;28;20467;-72
2022/10/06 04:46:25;;;;;;;2.17;1.20;;;14.90;99.90;;;;;;5010079;28;20460;-71
2022/10/06 04:48:53;;;;;;;3.27;0.77;;;14.90;99.90;;;;;;5013749;28;20959;-73
2022/10/06 04:51:20;;;;;;;0.80;0.67;;;14.90;99.90;;;;;;4997349;28;20455;-72
2022/10/06 04:53:47;;;;;;;1.03;1.03;;;14.80;99.90;;;;;;4993673;28;20476;-71
2022/10/06 04:56:21;;;;;;;1.00;0.90;;;14.90;99.90;;;;;;4992303;28;20487;-72
2022/10/06 04:58:50;;;;;;;2.23;0.90;;;14.80;99.90;;;;;;5007225;28;20464;-72
2022/10/06 05:01:20;;;;;;;1.27;0.80;;;14.80;99.90;;;;;;5008281;28;20913;-72
2022/10/06 05:03:48;;;;;;;1.30;0.90;;;14.80;99.90;;;;;;4990966;28;20514;-73
2022/10/06 05:06:18;;;;;;;2.90;1.33;;;14.80;99.90;;;;;;5014813;28;20460;-71
2022/10/06 05:08:49;;;;;;;0.80;0.80;;;14.80;99.90;;;;;;5015276;28;20457;-73
2022/10/06 05:11:16;;;;;;;4.67;0.87;;;14.80;99.90;;;;;;5020480;28;20486;-72
2022/10/06 05:13:42;;;;;;;3.07;0.90;;;14.80;99.90;;;;;;5012975;28;20462;-72
2022/10/06 05:16:11;;;;;;;1.70;1.03;;;14.80;99.90;;;;;;4994804;28;20475;-72
2022/10/06 05:18:38;;;;;;;1.73;1.00;;;14.70;99.90;;;;;;5016154;28;20462;-73
2022/10/06 05:21:11;;;;;;;1.00;0.80;;;14.70;99.90;;;;;;4997202;28;20464;-72
2022/10/06 05:23:40;;;;;;;1.10;0.90;;;14.80;99.90;;;;;;5008622;28;20448;-72
2022/10/06 05:26:06;;;;;;;2.43;1.10;;;14.70;99.90;;;;;;5014979;28;20451;-71
2022/10/06 05:28:33;;;;;;;1.60;1.00;;;14.70;99.90;;;;;;4990530;28;20459;-72
2022/10/06 05:31:06;;;;;;;1.27;0.70;;;14.70;99.90;;;;;;4998991;28;20459;-73
2022/10/06 05:33:34;;;;;;;1.50;1.40;;;14.70;99.90;;;;;;4990513;28;20468;-72
2022/10/06 05:36:25;;;;;;;2.63;1.10;;;14.60;99.90;;;;;;5015669;28;20982;-71
2022/10/06 05:38:52;;;;;;;1.83;1.10;;;14.60;99.90;;;;;;5007589;28;20459;-73
2022/10/06 05:41:19;;;;;;;3.43;0.90;;;14.50;99.90;;;;;;5011264;28;20466;-73
2022/10/06 05:43:47;;;;;;;3.77;1.07;;;14.50;99.90;;;;;;5002007;28;20577;-71
2022/10/06 05:46:22;;;;;;;2.07;0.93;;;14.50;99.90;;;;;;4995812;28;20456;-73
2022/10/06 05:48:50;;;;;;;1.33;1.10;;;14.40;99.90;;;;;;5009639;28;20518;-73
2022/10/06 05:51:19;;;;;;;1.77;1.20;;;14.40;99.90;;;;;;5009403;28;20980;-73
2022/10/06 05:53:46;;;;;;;2.97;1.20;;;14.30;99.90;;;;;;5001171;28;20489;-73
2022/10/06 05:56:22;;;;;;;3.03;1.37;;;14.30;99.90;;;;;;5022707;28;20489;-73
2022/10/06 05:58:51;;;;;;;1.23;0.83;;;14.30;99.90;;;;;;5011090;28;20447;-72
2022/10/06 06:01:18;;;;;;;1.70;0.70;;;14.20;99.90;;;;;;5007929;28;20451;-73
2022/10/06 06:04:00;;;;;;;1.90;0.97;;;14.20;99.90;;;;;;5000975;28;20496;-73
2022/10/06 06:06:34;;;;;;;4.27;1.40;;;14.20;99.90;;;;;;4998669;28;20467;-73
2022/10/06 06:09:08;;;;;;;6.00;3.97;;;14.30;99.90;;;;;;5000815;28;21022;-72
2022/10/06 06:11:37;;;;;;;7.40;3.90;;;14.30;99.90;;;;;;5024981;28;20508;-72
2022/10/06 06:14:05;;;;;;;10.17;6.80;;;14.20;99.90;;;;;;5005474;28;20471;-73
2022/10/06 06:16:31;;;;;;;5.23;3.40;;;14.20;99.90;;;;;;5009086;28;20467;-72
2022/10/06 06:18:58;;;;;;;4.00;1.97;;;14.20;99.90;;;;;;4999734;28;20969;-70
2022/10/06 06:21:25;;;;;;;5.60;2.43;;;14.20;99.90;;;;;;5008230;28;20535;-73
2022/10/06 06:23:51;;;;;;;3.73;1.80;;;14.20;99.90;;;;;;5010285;28;20475;-73
2022/10/06 06:26:23;;;;;;;7.77;1.87;;;14.10;99.90;;;;;;5012509;28;20486;-72
2022/10/06 06:28:51;;;;;;;6.57;2.37;;;14.10;99.90;;;;;;5015221;28;20460;-72
2022/10/06 06:31:19;;;;;;;5.43;2.37;;;14.00;99.90;;;;;;4993906;28;20453;-72
2022/10/06 06:33:47;;;;;;;4.83;2.20;;;14.00;99.90;;;;;;4995123;28;20551;-74
2022/10/06 06:36:19;;;;;;;4.60;1.43;;;14.00;99.90;;;;;;4999616;28;20510;-73
2022/10/06 06:38:48;;;;;;;5.97;1.70;;;14.00;99.90;;;;;;5015258;28;20448;-73
2022/10/06 06:41:22;;;;;;;2.60;1.57;;;13.90;99.90;;;;;;5001242;28;20452;-73
2022/10/06 06:43:52;;;;;;;2.83;2.00;;;13.90;99.90;;;;;;4997803;28;20475;-73
2022/10/06 06:46:31;;;;;;;10.93;2.60;;;13.90;99.90;;;;;;5003157;28;20552;-72
2022/10/06 06:49:04;;;;;;;5.60;2.10;;;13.90;99.90;;;;;;5009272;28;20453;-72
2022/10/06 06:51:39;;;;;;;1.70;1.50;;;13.90;99.90;;;;;;5017036;28;20444;-72
2022/10/06 06:54:06;;;;;;;3.53;1.57;;;13.90;99.90;;;;;;4986105;28;20465;-73
2022/10/06 06:56:35;;;;;;;2.97;1.33;;;13.90;99.90;;;;;;5001896;28;21007;-71
2022/10/06 06:59:09;;;;;;;4.10;1.20;;;13.80;99.90;;;;;;5018927;28;20893;-72
2022/10/06 07:01:35;;;;;;;3.00;1.40;;;13.80;99.90;;;;;;4996232;28;20464;-73
2022/10/06 07:04:01;;;;;;;4.30;1.73;;;13.80;99.90;;;;;;5022813;28;20467;-70
2022/10/06 07:06:31;;;;;;;3.43;1.47;;;13.80;99.90;;;;;;5001357;28;20451;-72
2022/10/06 07:08:59;;;;;;;3.90;1.27;;;13.80;99.90;;;;;;4995501;28;20471;-73
2022/10/06 07:11:29;;;;;;;2.13;1.30;;;13.80;99.90;;;;;;4994800;28;20445;-73
2022/10/06 07:13:57;;;;;;;9.77;1.70;;;13.80;99.90;;;;;;5004132;28;20467;-72
2022/10/06 07:25:05;;;;;;;2.80;1.03;;;13.80;99.90;;;;;;5006720;28;20484;-71
2022/10/06 07:27:41;;;;;;;5.93;2.07;;;13.80;99.90;;;;;;5011551;28;20527;-71
2022/10/06 07:30:09;;;;;;;17.77;6.20;;;13.90;99.90;;;;;;4992625;28;20467;-72
2022/10/06 07:32:36;;;;;;;13.43;7.60;;;13.90;99.90;;;;;;5003239;28;20471;-72
2022/10/06 07:35:03;;;;;;;14.20;6.53;;;13.90;99.90;;;;;;4995817;28;20559;-73
2022/10/06 07:37:29;;;;;;;10.47;5.10;;;14.00;99.90;;;;;;4999156;28;20535;-71
2022/10/06 07:39:56;;;;;;;8.90;4.70;;;14.00;99.90;;;;;;4997963;28;20461;-72
2022/10/06 07:42:22;;;;;;;11.73;4.73;;;14.10;99.90;;;;;;4993123;28;20902;-71
2022/10/06 07:47:36;;;;;;;10.43;3.43;;;14.10;99.90;;;;;;5010456;28;20518;-73
2022/10/06 07:50:04;;;;;;;4.83;3.63;;;14.20;99.90;;;;;;4994466;28;20444;-73
2022/10/06 07:52:31;;;;;;;8.73;4.77;;;14.20;99.90;;;;;;4999010;28;20519;-72
2022/10/06 07:54:57;;;;;;;4.00;3.33;;;14.20;99.90;;;;;;4999522;28;20476;-73
2022/10/06 07:57:38;;;;;;;20.57;8.67;;;14.30;99.90;;;;;;5005899;28;20832;-71
2022/10/06 08:00:04;;;;;;;20.33;12.30;;;14.30;99.90;;;;;;5002529;28;20539;-71
2022/10/06 08:02:38;;;;;;;13.87;8.70;;;14.30;99.90;;;;;;5011540;28;20271;-73
2022/10/06 08:05:04;;;;;;;10.93;7.20;;;14.30;99.90;;;;;;5014559;28;20468;-72
2022/10/06 08:07:30;;;;;;;8.40;4.50;;;14.30;99.90;;;;;;4991150;28;20531;-70
2022/10/06 08:09:56;;;;;;;6.80;4.00;;;14.40;99.90;;;;;;5012287;28;20480;-73
2022/10/06 08:12:36;;;;;;;5.67;3.10;;;14.40;99.90;;;;;;4999574;28;20236;-73
2022/10/06 08:15:05;;;;;;;3.27;2.00;;;14.40;99.90;;;;;;4992468;28;20236;-72
2022/10/06 08:17:32;;;;;;;4.80;3.27;;;14.50;99.90;;;;;;5004325;28;20444;-71
2022/10/06 08:19:58;;;;;;;83.00;38.37;;;14.50;99.90;;;;;;5022207;28;20998;-71
2022/10/06 08:22:28;;;;;;;81.10;42.47;;;14.50;99.90;;;;;;5007267;28;20510;-72
2022/10/06 08:24:56;;;;;;;65.47;31.60;;;14.60;99.90;;;;;;5008609;28;21145;-73
2022/10/06 08:27:28;;;;;;;37.40;17.40;;;14.60;99.90;;;;;;5008367;28;21202;-71
2022/10/06 08:29:54;;;;;;;19.83;10.13;;;14.70;99.90;;;;;;4986563;28;20468;-72
2022/10/06 08:32:21;;;;;;;11.77;6.10;;;14.70;99.90;;;;;;5011425;28;20565;-72
2022/10/06 08:34:48;;;;;;;12.60;5.70;;;14.80;99.90;;;;;;5007049;28;20551;-73
2022/10/06 08:37:14;;;;;;;4.07;3.03;;;14.80;99.90;;;;;;5007442;28;20468;-70
2022/10/06 08:39:41;;;;;;;4.30;2.70;;;14.90;99.90;;;;;;5018547;28;20522;-73
2022/10/06 08:42:15;;;;;;;7.23;1.77;;;15.00;99.90;;;;;;5013954;28;20959;-73
2022/10/06 08:44:55;;;;;;;6.17;1.87;;;15.00;99.90;;;;;;5007547;28;20563;-72
2022/10/06 08:47:26;;;;;;;3.97;1.67;;;15.00;99.90;;;;;;4994478;28;20457;-72
2022/10/06 08:49:53;;;;;;;7.10;1.70;;;15.10;99.90;;;;;;5017209;28;20569;-72
2022/10/06 08:52:38;;;;;;;2.20;1.23;;;15.00;99.90;;;;;;5002463;28;20451;-73
2022/10/06 08:55:15;;;;;;;7.07;1.97;;;15.10;99.90;;;;;;4977798;28;20550;-71
2022/10/06 08:58:05;;;;;;;3.50;1.67;;;15.10;99.90;;;;;;4999014;28;20460;-72
2022/10/06 09:00:35;;;;;;;3.40;1.40;;;15.20;99.90;;;;;;4989676;28;20808;-72
2022/10/06 09:03:02;;;;;;;8.03;1.73;;;15.40;99.90;;;;;;5003173;28;20460;-71
2022/10/06 09:05:30;;;;;;;2.50;1.57;;;15.50;99.90;;;;;;4995158;28;20460;-72
2022/10/06 09:08:03;;;;;;;1.80;1.60;;;15.60;99.90;;;;;;5012313;28;20471;-73
2022/10/06 09:10:50;;;;;;;3.50;1.23;;;15.60;99.90;;;;;;5011017;28;20471;-73
2022/10/06 09:13:52;;;;;;;4.50;1.83;;;15.70;99.90;;;;;;5001252;28;20456;-72
2022/10/06 09:16:27;;;;;;;2.57;1.43;;;15.80;99.90;;;;;;5006936;28;20458;-72
2022/10/06 09:19:12;;;;;;;5.60;1.50;;;15.80;99.90;;;;;;4991438;28;20457;-73
2022/10/06 09:21:50;;;;;;;3.83;1.27;;;15.90;99.90;;;;;;5019702;28;20508;-73
2022/10/06 09:24:22;;;;;;;2.13;1.20;;;15.90;99.90;;;;;;5011245;28;20455;-72
2022/10/06 09:26:50;;;;;;;6.30;2.43;;;15.90;99.90;;;;;;5011343;28;20498;-72
2022/10/06 09:29:16;;;;;;;4.27;1.20;;;16.00;99.90;;;;;;5005165;28;20510;-72
2022/10/06 09:31:47;;;;;;;7.23;1.80;;;16.00;99.90;;;;;;5011007;28;20453;-72
2022/10/06 09:34:25;;;;;;;3.40;1.40;;;16.10;99.90;;;;;;4996922;28;20484;-72
2022/10/06 09:37:08;;;;;;;4.60;1.50;;;16.10;99.90;;;;;;5013229;28;20454;-73
2022/10/06 09:39:40;;;;;;;8.70;3.37;;;16.30;99.90;;;;;;5010264;28;20531;-73
2022/10/06 09:42:06;;;;;;;10.33;3.33;;;16.30;99.90;;;;;;5019843;28;20466;-74
2022/10/06 09:44:50;;;;;;;5.50;3.60;;;16.30;99.90;;;;;;4990051;28;20960;-72
2022/10/06 09:47:27;;;;;;;3.03;2.13;;;16.30;99.90;;;;;;5014751;28;20466;-73
2022/10/06 09:50:19;;;;;;;4.63;1.67;;;16.30;99.90;;;;;;5003710;28;20447;-73
2022/10/06 09:52:56;;;;;;;4.27;1.50;;;16.30;99.90;;;;;;5016888;28;20539;-73
2022/10/06 09:55:28;;;;;;;3.17;1.70;;;16.30;99.90;;;;;;4987686;28;20565;-71
2022/10/06 09:57:56;;;;;;;3.33;1.93;;;16.40;99.90;;;;;;5012620;28;20892;-71
2022/10/06 10:00:25;;;;;;;4.47;1.70;;;16.40;99.90;;;;;;4994695;28;20454;-72
2022/10/06 10:02:57;;;;;;;3.00;1.63;;;16.50;99.90;;;;;;5007143;28;20465;-73
2022/10/06 10:05:24;;;;;;;2.30;1.33;;;16.50;99.90;;;;;;4994266;28;20537;-73
2022/10/06 10:08:05;;;;;;;2.10;1.00;;;16.60;99.90;;;;;;5013462;28;20510;-73
2022/10/06 10:10:33;;;;;;;4.10;1.30;;;16.60;99.90;;;;;;5007632;28;20518;-73
2022/10/06 10:12:59;;;;;;;7.73;1.33;;;16.70;99.90;;;;;;5009156;28;20480;-73
2022/10/06 10:15:31;;;;;;;3.50;1.40;;;16.60;99.90;;;;;;4995611;28;20606;-72
2022/10/06 10:18:04;;;;;;;2.50;1.23;;;16.60;99.90;;;;;;5019421;28;20448;-73
2022/10/06 10:20:33;;;;;;;4.57;1.37;;;16.60;99.90;;;;;;4995739;28;20479;-73
2022/10/06 10:23:09;;;;;;;1.43;1.23;;;16.60;99.90;;;;;;5009611;28;20460;-73
2022/10/06 10:26:00;;;;;;;1.73;1.03;;;16.70;99.90;;;;;;5014567;28;20551;-73
2022/10/06 10:28:59;;;;;;;3.40;1.47;;;16.80;99.90;;;;;;5006150;28;20471;-71
2022/10/06 10:31:46;;;;;;;4.00;1.33;;;16.70;99.90;;;;;;4995518;28;20610;-73
2022/10/06 10:34:15;;;;;;;2.60;1.03;;;16.80;99.90;;;;;;4997337;28;20572;-73
2022/10/06 10:37:20;;;;;;;5.20;1.83;;;16.80;99.90;;;;;;5007930;28;20448;-73
2022/10/06 10:40:05;;;;;;;3.77;1.47;;;16.80;99.90;;;;;;4973205;28;20481;-73
2022/10/06 10:42:38;;;;;;;3.10;0.97;;;16.80;99.90;;;;;;4996015;28;20449;-72
2022/10/06 10:45:33;;;;;;;3.13;0.90;;;16.90;99.90;;;;;;5006966;28;20477;-72
2022/10/06 10:48:03;;;;;;;6.10;1.43;;;16.90;99.90;;;;;;4996397;28;20467;-72
2022/10/06 10:50:43;;;;;;;3.23;1.03;;;17.00;99.90;;;;;;4990539;28;20865;-73
2022/10/06 10:53:17;;;;;;;5.67;1.47;;;17.10;99.90;;;;;;5017795;28;20533;-73
2022/10/06 10:55:46;;;;;;;2.70;0.93;;;17.10;99.90;;;;;;5012731;28;20463;-73
2022/10/06 10:58:33;;;;;;;6.97;1.67;;;17.20;99.90;;;;;;4998915;28;20559;-74
2022/10/06 11:01:24;;;;;;;3.03;1.10;;;17.20;99.90;;;;;;5029767;28;20449;-73
2022/10/06 11:03:56;;;;;;;3.27;1.30;;;17.30;99.90;;;;;;4993372;28;20451;-73
2022/10/06 11:06:28;;;;;;;2.37;1.20;;;17.40;99.90;;;;;;5007489;28;20467;-73
2022/10/06 11:09:13;;;;;;;1.00;0.80;;;17.60;99.90;;;;;;5013334;28;20450;-72
2022/10/06 11:11:53;;;;;;;3.27;1.57;;;17.70;99.90;;;;;;5005396;28;20459;-74
2022/10/06 11:14:47;;;;;;;2.53;1.00;;;17.70;99.90;;;;;;4980908;28;20943;-73
2022/10/06 11:17:28;;;;;;;2.47;1.33;;;17.80;99.90;;;;;;4976694;28;20613;-73
2022/10/06 11:20:31;;;;;;;2.40;1.13;;;17.80;99.90;;;;;;5010760;28;20526;-73
2022/10/06 11:23:11;;;;;;;3.93;1.10;;;17.80;99.90;;;;;;5028437;28;20455;-72
2022/10/06 11:25:52;;;;;;;3.50;1.07;;;17.80;99.90;;;;;;4986780;28;20438;-73
2022/10/06 11:28:26;;;;;;;7.17;1.50;;;18.00;99.90;;;;;;5006691;28;20496;-73
2022/10/06 11:31:09;;;;;;;4.63;1.10;;;18.00;99.90;;;;;;5022174;28;20452;-73
2022/10/06 11:33:44;;;;;;;2.60;1.10;;;18.10;99.90;;;;;;5009960;28;20471;-73
2022/10/06 11:36:28;;;;;;;3.40;1.70;;;18.10;99.90;;;;;;5007298;28;20490;-73
2022/10/06 11:39:26;;;;;;;12.83;4.07;;;18.20;99.90;;;;;;4999470;28;20551;-73
2022/10/06 11:42:22;;;;;;;12.20;7.60;;;18.30;99.90;;;;;;4985765;28;20448;-73
2022/10/06 11:45:02;;;;;;;34.70;16.17;;;18.40;99.90;;;;;;5009680;28;20526;-73
2022/10/06 11:47:41;;;;;;;18.50;9.10;;;18.50;99.90;;;;;;4996163;28;20464;-73
2022/10/06 11:50:40;;;;;;;9.80;5.17;;;18.60;99.90;;;;;;4990488;28;20460;-73
2022/10/06 11:53:22;;;;;;;4.50;2.60;;;18.50;99.90;;;;;;5000506;28;20460;-73
2022/10/06 11:56:16;;;;;;;5.07;3.90;;;18.70;99.90;;;;;;5012821;28;20459;-73
2022/10/06 11:58:54;;;;;;;5.83;2.03;;;18.80;99.90;;;;;;5014214;28;20440;-73
2022/10/06 12:01:42;;;;;;;4.37;1.80;;;19.20;99.90;;;;;;5012495;28;20437;-74
2022/10/06 12:04:08;;;;;;;2.37;1.70;;;19.30;99.90;;;;;;5015997;28;20551;-73
2022/10/06 12:06:45;;;;;;;5.03;1.93;;;19.20;99.90;;;;;;5014853;28;20557;-73
2022/10/06 12:09:32;;;;;;;5.23;1.80;;;19.20;99.90;;;;;;5013019;28;20217;-73
2022/10/06 12:12:28;;;;;;;2.17;1.27;;;18.90;99.90;;;;;;4998054;28;20546;-74
2022/10/06 12:15:03;;;;;;;2.30;1.20;;;19.00;99.90;;;;;;4990571;28;21062;-73
2022/10/06 12:17:39;;;;;;;2.63;1.03;;;19.10;99.90;;;;;;5024031;28;21037;-73
2022/10/06 12:20:27;;;;;;;2.17;1.70;;;19.20;99.90;;;;;;5009305;28;20451;-73
2022/10/06 12:23:13;;;;;;;5.43;1.10;;;19.20;99.90;;;;;;5015036;28;20460;-73
2022/10/06 12:25:57;;;;;;;5.00;1.03;;;19.20;99.90;;;;;;5003484;28;20528;-73
2022/10/06 12:28:43;;;;;;;2.83;1.07;;;19.10;99.90;;;;;;4992059;28;20818;-73
2022/10/06 12:31:40;;;;;;;3.03;1.03;;;19.20;99.90;;;;;;5007003;28;20470;-73
2022/10/06 12:34:50;;;;;;;4.53;2.10;;;19.30;99.90;;;;;;5019135;28;20499;-73
2022/10/06 12:37:28;;;;;;;2.70;1.10;;;19.50;99.90;;;;;;4995805;28;20460;-72
2022/10/06 12:40:31;;;;;;;2.43;0.87;;;19.40;99.90;;;;;;4985373;28;20448;-72
2022/10/06 12:43:13;;;;;;;3.67;1.07;;;19.30;99.90;;;;;;5014293;28;21010;-73
2022/10/06 12:45:43;;;;;;;2.50;0.83;;;19.40;99.90;;;;;;5012463;28;20573;-73
2022/10/06 12:48:36;;;;;;;4.07;1.10;;;19.50;99.90;;;;;;5005196;28;20607;-73
2022/10/06 12:51:23;;;;;;;1.27;0.93;;;19.50;99.90;;;;;;4981745;28;20544;-73
2022/10/06 12:54:42;;;;;;;3.73;1.07;;;19.70;99.90;;;;;;4999272;28;20472;-73
2022/10/06 12:57:17;;;;;;;3.03;1.30;;;19.90;99.90;;;;;;4979293;28;20598;-73
2022/10/06 12:59:43;;;;;;;3.30;1.10;;;20.00;99.90;;;;;;4981525;28;20456;-72
2022/10/06 13:02:24;;;;;;;3.03;0.97;;;20.20;99.90;;;;;;4996155;28;20448;-73
2022/10/06 13:04:58;;;;;;;2.37;1.20;;;20.20;99.90;;;;;;4997932;28;20464;-73
2022/10/06 13:07:27;;;;;;;2.40;1.37;;;20.30;99.90;;;;;;4996507;28;20468;-73
2022/10/06 13:10:13;;;;;;;2.33;1.00;;;20.40;99.90;;;;;;5001991;28;20462;-74
2022/10/06 13:12:41;;;;;;;2.87;1.13;;;20.40;99.90;;;;;;5004966;28;20447;-73
2022/10/06 13:15:12;;;;;;;2.50;1.03;;;20.40;99.90;;;;;;4995478;28;20475;-73
2022/10/06 13:17:49;;;;;;;0.80;0.80;;;20.40;99.90;;;;;;5017377;28;20456;-73
2022/10/06 13:20:19;;;;;;;1.17;0.83;;;20.40;99.90;;;;;;5015296;28;20466;-73
2022/10/06 13:22:45;;;;;;;1.90;0.93;;;20.30;99.90;;;;;;5006109;28;20455;-72
2022/10/06 13:25:15;;;;;;;2.50;0.80;;;20.30;99.90;;;;;;5014167;28;20476;-73